sensor_id;sensor_type;location;lat;lon;timestamp;temperature;humidity
20066;DHT22;10193;48.884;9.182;2023-07-09T00:00:54;27.30;39.40
20066;DHT22;10193;48.884;9.182;2023-07-09T00:03:20;27.30;39.40
20066;DHT22;10193;48.884;9.182;2023-07-09T00:05:48;27.30;39.40
20066;DHT22;10193;48.884;9.182;2023-07-09T00:08:24;27.20;39.50
20066;DHT22;10193;48.884;9.182;2023-07-09T00:10:52;27.20;39.70
20066;DHT22;10193;48.884;9.182;2023-07-09T00:13:19;27.20;39.50
20066;DHT22;10193;48.884;9.182;2023-07-09T00:15:47;27.20;39.60
20066;DHT22;10193;48.884;9.182;2023-07-09T00:18:14;27.10;39.70
20066;DHT22;10193;48.884;9.182;2023-07-09T00:20:41;27.10;39.80
20066;DHT22;10193;48.884;9.182;2023-07-09T00:23:08;27.10;40.00
20066;DHT22;10193;48.884;9.182;2023-07-09T00:25:39;27.00;40.00
20066;DHT22;10193;48.884;9.182;2023-07-09T00:28:11;27.00;40.20
20066;DHT22;10193;48.884;9.182;2023-07-09T00:30:38;26.90;40.30
20066;DHT22;10193;48.884;9.182;2023-07-09T00:33:09;26.80;40.20
20066;DHT22;10193;48.884;9.182;2023-07-09T00:35:37;26.80;40.50
20066;DHT22;10193;48.884;9.182;2023-07-09T00:38:10;26.70;40.50
20066;DHT22;10193;48.884;9.182;2023-07-09T00:40:46;26.60;40.60
20066;DHT22;10193;48.884;9.182;2023-07-09T00:43:16;26.50;40.90
20066;DHT22;10193;48.884;9.182;2023-07-09T00:45:42;26.40;40.80
20066;DHT22;10193;48.884;9.182;2023-07-09T00:48:13;26.40;40.90
20066;DHT22;10193;48.884;9.182;2023-07-09T00:50:44;26.30;41.20
20066;DHT22;10193;48.884;9.182;2023-07-09T00:53:15;26.20;41.20
20066;DHT22;10193;48.884;9.182;2023-07-09T00:55:45;26.20;41.40
20066;DHT22;10193;48.884;9.182;2023-07-09T00:58:14;26.10;41.50
20066;DHT22;10193;48.884;9.182;2023-07-09T01:00:44;26.00;41.50
20066;DHT22;10193;48.884;9.182;2023-07-09T01:03:18;26.00;41.80
20066;DHT22;10193;48.884;9.182;2023-07-09T01:05:47;25.90;42.00
20066;DHT22;10193;48.884;9.182;2023-07-09T01:08:18;25.80;42.10
20066;DHT22;10193;48.884;9.182;2023-07-09T01:10:46;25.80;42.10
20066;DHT22;10193;48.884;9.182;2023-07-09T01:13:13;25.70;42.20
20066;DHT22;10193;48.884;9.182;2023-07-09T01:15:40;25.60;42.30
20066;DHT22;10193;48.884;9.182;2023-07-09T01:18:07;25.60;42.50
20066;DHT22;10193;48.884;9.182;2023-07-09T01:20:38;25.50;42.60
20066;DHT22;10193;48.884;9.182;2023-07-09T01:23:07;25.40;42.70
20066;DHT22;10193;48.884;9.182;2023-07-09T01:25:43;25.40;42.90
20066;DHT22;10193;48.884;9.182;2023-07-09T01:28:10;25.30;43.10
20066;DHT22;10193;48.884;9.182;2023-07-09T01:30:39;25.30;43.10
20066;DHT22;10193;48.884;9.182;2023-07-09T01:33:06;25.30;43.40
20066;DHT22;10193;48.884;9.182;2023-07-09T01:35:37;25.20;43.30
20066;DHT22;10193;48.884;9.182;2023-07-09T01:38:08;25.20;43.50
20066;DHT22;10193;48.884;9.182;2023-07-09T01:40:35;25.10;43.50
20066;DHT22;10193;48.884;9.182;2023-07-09T01:43:03;25.10;43.70
20066;DHT22;10193;48.884;9.182;2023-07-09T01:45:32;25.00;43.80
20066;DHT22;10193;48.884;9.182;2023-07-09T01:48:01;25.00;43.90
20066;DHT22;10193;48.884;9.182;2023-07-09T01:50:28;25.00;44.10
20066;DHT22;10193;48.884;9.182;2023-07-09T01:52:56;25.00;44.20
20066;DHT22;10193;48.884;9.182;2023-07-09T01:55:24;24.90;44.20
20066;DHT22;10193;48.884;9.182;2023-07-09T01:57:51;24.90;44.30
20066;DHT22;10193;48.884;9.182;2023-07-09T02:00:18;24.90;44.40
20066;DHT22;10193;48.884;9.182;2023-07-09T02:02:46;24.90;44.50
20066;DHT22;10193;48.884;9.182;2023-07-09T02:05:14;24.90;44.70
20066;DHT22;10193;48.884;9.182;2023-07-09T02:07:42;24.80;44.70
20066;DHT22;10193;48.884;9.182;2023-07-09T02:10:09;24.80;44.80
20066;DHT22;10193;48.884;9.182;2023-07-09T02:12:37;24.80;44.90
20066;DHT22;10193;48.884;9.182;2023-07-09T02:15:05;24.80;45.00
20066;DHT22;10193;48.884;9.182;2023-07-09T02:17:32;24.80;45.10
20066;DHT22;10193;48.884;9.182;2023-07-09T02:19:59;24.80;45.10
20066;DHT22;10193;48.884;9.182;2023-07-09T02:22:25;24.80;45.10
20066;DHT22;10193;48.884;9.182;2023-07-09T02:24:52;24.70;45.10
20066;DHT22;10193;48.884;9.182;2023-07-09T02:27:20;24.70;45.20
20066;DHT22;10193;48.884;9.182;2023-07-09T02:29:48;24.70;45.30
20066;DHT22;10193;48.884;9.182;2023-07-09T02:32:18;24.70;45.40
20066;DHT22;10193;48.884;9.182;2023-07-09T02:34:45;24.70;45.50
20066;DHT22;10193;48.884;9.182;2023-07-09T02:37:15;24.70;45.50
20066;DHT22;10193;48.884;9.182;2023-07-09T02:39:43;24.70;45.60
20066;DHT22;10193;48.884;9.182;2023-07-09T02:42:10;24.60;45.60
20066;DHT22;10193;48.884;9.182;2023-07-09T02:44:37;24.60;45.70
20066;DHT22;10193;48.884;9.182;2023-07-09T02:47:05;24.60;45.70
20066;DHT22;10193;48.884;9.182;2023-07-09T02:49:32;24.60;46.50
20066;DHT22;10193;48.884;9.182;2023-07-09T02:51:59;24.50;45.80
20066;DHT22;10193;48.884;9.182;2023-07-09T02:54:26;24.50;45.90
20066;DHT22;10193;48.884;9.182;2023-07-09T02:56:53;24.50;46.10
20066;DHT22;10193;48.884;9.182;2023-07-09T02:59:20;24.50;46.10
20066;DHT22;10193;48.884;9.182;2023-07-09T03:01:47;24.50;46.20
20066;DHT22;10193;48.884;9.182;2023-07-09T03:04:15;24.40;46.20
20066;DHT22;10193;48.884;9.182;2023-07-09T03:06:42;24.40;46.30
20066;DHT22;10193;48.884;9.182;2023-07-09T03:09:10;24.40;46.30
20066;DHT22;10193;48.884;9.182;2023-07-09T03:11:37;24.30;46.30
20066;DHT22;10193;48.884;9.182;2023-07-09T03:14:04;24.30;46.40
20066;DHT22;10193;48.884;9.182;2023-07-09T03:16:32;24.30;46.60
20066;DHT22;10193;48.884;9.182;2023-07-09T03:18:59;24.20;46.60
20066;DHT22;10193;48.884;9.182;2023-07-09T03:21:28;24.10;46.70
20066;DHT22;10193;48.884;9.182;2023-07-09T03:23:55;24.10;46.80
20066;DHT22;10193;48.884;9.182;2023-07-09T03:26:22;24.10;46.90
20066;DHT22;10193;48.884;9.182;2023-07-09T03:28:51;24.10;47.00
20066;DHT22;10193;48.884;9.182;2023-07-09T03:31:17;24.00;47.00
20066;DHT22;10193;48.884;9.182;2023-07-09T03:33:46;24.00;47.00
20066;DHT22;10193;48.884;9.182;2023-07-09T03:36:13;23.90;47.10
20066;DHT22;10193;48.884;9.182;2023-07-09T03:38:41;23.90;47.20
20066;DHT22;10193;48.884;9.182;2023-07-09T03:41:07;23.90;47.40
20066;DHT22;10193;48.884;9.182;2023-07-09T03:43:34;23.80;47.40
20066;DHT22;10193;48.884;9.182;2023-07-09T03:46:01;23.80;47.40
20066;DHT22;10193;48.884;9.182;2023-07-09T03:48:27;23.80;47.50
20066;DHT22;10193;48.884;9.182;2023-07-09T03:50:54;23.80;47.60
20066;DHT22;10193;48.884;9.182;2023-07-09T03:53:21;23.70;47.60
20066;DHT22;10193;48.884;9.182;2023-07-09T03:55:54;23.70;47.70
20066;DHT22;10193;48.884;9.182;2023-07-09T03:58:22;23.70;48.00
20066;DHT22;10193;48.884;9.182;2023-07-09T04:00:49;23.70;47.80
20066;DHT22;10193;48.884;9.182;2023-07-09T04:03:16;23.70;47.80
20066;DHT22;10193;48.884;9.182;2023-07-09T04:05:43;23.70;47.90
20066;DHT22;10193;48.884;9.182;2023-07-09T04:08:09;23.70;47.90
20066;DHT22;10193;48.884;9.182;2023-07-09T04:10:36;23.70;48.10
20066;DHT22;10193;48.884;9.182;2023-07-09T04:13:04;23.70;48.10
20066;DHT22;10193;48.884;9.182;2023-07-09T04:15:31;23.70;48.20
20066;DHT22;10193;48.884;9.182;2023-07-09T04:17:58;23.70;48.20
20066;DHT22;10193;48.884;9.182;2023-07-09T04:20:25;23.70;48.30
20066;DHT22;10193;48.884;9.182;2023-07-09T04:22:51;23.70;48.30
20066;DHT22;10193;48.884;9.182;2023-07-09T04:25:18;23.70;48.40
20066;DHT22;10193;48.884;9.182;2023-07-09T04:27:45;23.70;48.50
20066;DHT22;10193;48.884;9.182;2023-07-09T04:30:14;23.80;48.70
20066;DHT22;10193;48.884;9.182;2023-07-09T04:32:42;23.80;48.90
20066;DHT22;10193;48.884;9.182;2023-07-09T04:35:09;23.90;49.10
20066;DHT22;10193;48.884;9.182;2023-07-09T04:37:37;24.00;49.40
20066;DHT22;10193;48.884;9.182;2023-07-09T04:40:04;24.10;49.50
20066;DHT22;10193;48.884;9.182;2023-07-09T04:42:32;24.40;49.80
20066;DHT22;10193;48.884;9.182;2023-07-09T04:44:59;24.60;49.90
20066;DHT22;10193;48.884;9.182;2023-07-09T04:47:27;24.80;49.80
20066;DHT22;10193;48.884;9.182;2023-07-09T04:49:54;25.10;49.80
20066;DHT22;10193;48.884;9.182;2023-07-09T04:52:20;25.40;49.70
20066;DHT22;10193;48.884;9.182;2023-07-09T04:54:47;25.70;49.80
20066;DHT22;10193;48.884;9.182;2023-07-09T04:57:16;26.00;49.50
20066;DHT22;10193;48.884;9.182;2023-07-09T04:59:43;26.30;49.30
20066;DHT22;10193;48.884;9.182;2023-07-09T05:02:10;26.50;49.00
20066;DHT22;10193;48.884;9.182;2023-07-09T05:04:38;26.90;48.80
20066;DHT22;10193;48.884;9.182;2023-07-09T05:07:05;27.10;48.40
20066;DHT22;10193;48.884;9.182;2023-07-09T05:09:32;27.30;48.10
20066;DHT22;10193;48.884;9.182;2023-07-09T05:11:59;27.60;48.00
20066;DHT22;10193;48.884;9.182;2023-07-09T05:14:26;27.80;47.90
20066;DHT22;10193;48.884;9.182;2023-07-09T05:16:53;28.10;47.60
20066;DHT22;10193;48.884;9.182;2023-07-09T05:19:20;28.40;47.50
20066;DHT22;10193;48.884;9.182;2023-07-09T05:21:48;28.60;47.50
20066;DHT22;10193;48.884;9.182;2023-07-09T05:24:15;28.80;47.40
20066;DHT22;10193;48.884;9.182;2023-07-09T05:26:41;29.10;47.50
20066;DHT22;10193;48.884;9.182;2023-07-09T05:29:08;29.30;47.10
20066;DHT22;10193;48.884;9.182;2023-07-09T05:31:35;29.60;47.20
20066;DHT22;10193;48.884;9.182;2023-07-09T05:34:02;29.80;46.90
20066;DHT22;10193;48.884;9.182;2023-07-09T05:36:29;30.10;46.70
20066;DHT22;10193;48.884;9.182;2023-07-09T05:38:57;30.40;46.80
20066;DHT22;10193;48.884;9.182;2023-07-09T05:41:24;30.60;46.40
20066;DHT22;10193;48.884;9.182;2023-07-09T05:43:51;30.80;46.10
20066;DHT22;10193;48.884;9.182;2023-07-09T05:46:19;31.00;46.00
20066;DHT22;10193;48.884;9.182;2023-07-09T05:48:45;31.30;45.80
20066;DHT22;10193;48.884;9.182;2023-07-09T05:51:12;31.40;45.50
20066;DHT22;10193;48.884;9.182;2023-07-09T05:53:39;31.60;45.10
20066;DHT22;10193;48.884;9.182;2023-07-09T05:56:07;31.90;45.00
20066;DHT22;10193;48.884;9.182;2023-07-09T05:58:34;32.00;44.30
20066;DHT22;10193;48.884;9.182;2023-07-09T06:01:00;32.20;44.10
20066;DHT22;10193;48.884;9.182;2023-07-09T06:03:29;32.40;44.40
20066;DHT22;10193;48.884;9.182;2023-07-09T06:05:56;32.60;43.90
20066;DHT22;10193;48.884;9.182;2023-07-09T06:08:23;32.90;43.70
20066;DHT22;10193;48.884;9.182;2023-07-09T06:10:53;33.00;43.30
20066;DHT22;10193;48.884;9.182;2023-07-09T06:13:22;33.10;43.00
20066;DHT22;10193;48.884;9.182;2023-07-09T06:15:50;33.20;42.80
20066;DHT22;10193;48.884;9.182;2023-07-09T06:18:17;33.40;43.00
20066;DHT22;10193;48.884;9.182;2023-07-09T06:20:47;33.50;42.90
20066;DHT22;10193;48.884;9.182;2023-07-09T06:23:14;33.70;42.80
20066;DHT22;10193;48.884;9.182;2023-07-09T06:25:40;33.80;42.60
20066;DHT22;10193;48.884;9.182;2023-07-09T06:28:07;33.90;42.40
20066;DHT22;10193;48.884;9.182;2023-07-09T06:30:35;34.00;42.30
20066;DHT22;10193;48.884;9.182;2023-07-09T06:33:02;34.20;41.90
20066;DHT22;10193;48.884;9.182;2023-07-09T06:35:29;34.20;41.70
20066;DHT22;10193;48.884;9.182;2023-07-09T06:37:56;34.40;42.40
20066;DHT22;10193;48.884;9.182;2023-07-09T06:40:22;34.50;41.60
20066;DHT22;10193;48.884;9.182;2023-07-09T06:42:49;34.70;41.50
20066;DHT22;10193;48.884;9.182;2023-07-09T06:45:16;34.80;41.30
20066;DHT22;10193;48.884;9.182;2023-07-09T06:47:44;34.90;41.00
20066;DHT22;10193;48.884;9.182;2023-07-09T06:50:11;35.00;40.70
20066;DHT22;10193;48.884;9.182;2023-07-09T06:52:38;35.20;40.40
20066;DHT22;10193;48.884;9.182;2023-07-09T06:55:06;35.20;40.30
20066;DHT22;10193;48.884;9.182;2023-07-09T06:57:33;35.30;40.40
20066;DHT22;10193;48.884;9.182;2023-07-09T07:00:00;35.30;40.00
20066;DHT22;10193;48.884;9.182;2023-07-09T07:02:26;35.30;39.70
20066;DHT22;10193;48.884;9.182;2023-07-09T07:04:54;35.30;39.70
20066;DHT22;10193;48.884;9.182;2023-07-09T07:07:21;35.20;39.80
20066;DHT22;10193;48.884;9.182;2023-07-09T07:09:48;35.10;39.60
20066;DHT22;10193;48.884;9.182;2023-07-09T07:12:23;35.00;39.50
20066;DHT22;10193;48.884;9.182;2023-07-09T07:14:50;34.90;39.50
20066;DHT22;10193;48.884;9.182;2023-07-09T07:17:17;34.90;39.50
20066;DHT22;10193;48.884;9.182;2023-07-09T07:19:44;34.80;39.60
20066;DHT22;10193;48.884;9.182;2023-07-09T07:22:12;34.70;39.60
20066;DHT22;10193;48.884;9.182;2023-07-09T07:24:39;34.70;39.90
20066;DHT22;10193;48.884;9.182;2023-07-09T07:27:05;34.60;39.60
20066;DHT22;10193;48.884;9.182;2023-07-09T07:29:32;34.60;39.70
20066;DHT22;10193;48.884;9.182;2023-07-09T07:32:00;34.60;40.10
20066;DHT22;10193;48.884;9.182;2023-07-09T07:34:27;34.50;40.20
20066;DHT22;10193;48.884;9.182;2023-07-09T07:36:53;34.50;40.10
20066;DHT22;10193;48.884;9.182;2023-07-09T07:39:21;34.50;40.10
20066;DHT22;10193;48.884;9.182;2023-07-09T07:41:48;34.50;40.10
20066;DHT22;10193;48.884;9.182;2023-07-09T07:44:16;34.40;40.10
20066;DHT22;10193;48.884;9.182;2023-07-09T07:46:43;34.50;40.30
20066;DHT22;10193;48.884;9.182;2023-07-09T07:49:10;34.40;40.20
20066;DHT22;10193;48.884;9.182;2023-07-09T07:51:36;34.40;39.80
20066;DHT22;10193;48.884;9.182;2023-07-09T07:54:04;34.30;39.50
20066;DHT22;10193;48.884;9.182;2023-07-09T07:56:32;34.30;39.30
20066;DHT22;10193;48.884;9.182;2023-07-09T07:58:59;34.20;39.10
20066;DHT22;10193;48.884;9.182;2023-07-09T08:01:25;34.20;39.00
20066;DHT22;10193;48.884;9.182;2023-07-09T08:03:53;34.10;38.80
20066;DHT22;10193;48.884;9.182;2023-07-09T08:06:20;34.10;38.80
20066;DHT22;10193;48.884;9.182;2023-07-09T08:08:47;34.00;38.90
20066;DHT22;10193;48.884;9.182;2023-07-09T08:11:14;33.90;38.70
20066;DHT22;10193;48.884;9.182;2023-07-09T08:13:42;33.90;38.70
20066;DHT22;10193;48.884;9.182;2023-07-09T08:16:09;33.90;38.80
20066;DHT22;10193;48.884;9.182;2023-07-09T08:18:38;33.80;38.80
20066;DHT22;10193;48.884;9.182;2023-07-09T08:21:04;33.80;38.80
20066;DHT22;10193;48.884;9.182;2023-07-09T08:23:31;33.70;38.70
20066;DHT22;10193;48.884;9.182;2023-07-09T08:25:59;33.70;38.60
20066;DHT22;10193;48.884;9.182;2023-07-09T08:28:27;33.60;38.40
20066;DHT22;10193;48.884;9.182;2023-07-09T08:30:56;33.60;38.30
20066;DHT22;10193;48.884;9.182;2023-07-09T08:33:23;33.60;38.20
20066;DHT22;10193;48.884;9.182;2023-07-09T08:35:51;33.50;37.90
20066;DHT22;10193;48.884;9.182;2023-07-09T08:38:18;33.50;38.00
20066;DHT22;10193;48.884;9.182;2023-07-09T08:40:53;33.50;38.10
20066;DHT22;10193;48.884;9.182;2023-07-09T08:43:29;33.40;38.00
20066;DHT22;10193;48.884;9.182;2023-07-09T08:46:03;33.40;37.90
20066;DHT22;10193;48.884;9.182;2023-07-09T08:48:34;33.40;38.00
20066;DHT22;10193;48.884;9.182;2023-07-09T08:51:06;33.40;37.90
20066;DHT22;10193;48.884;9.182;2023-07-09T08:53:37;33.40;37.60
20066;DHT22;10193;48.884;9.182;2023-07-09T08:56:08;33.40;37.50
20066;DHT22;10193;48.884;9.182;2023-07-09T08:58:36;33.40;37.60
20066;DHT22;10193;48.884;9.182;2023-07-09T09:01:14;33.40;37.60
20066;DHT22;10193;48.884;9.182;2023-07-09T09:03:46;33.40;37.50
20066;DHT22;10193;48.884;9.182;2023-07-09T09:06:15;33.50;37.60
20066;DHT22;10193;48.884;9.182;2023-07-09T09:08:54;33.50;37.50
20066;DHT22;10193;48.884;9.182;2023-07-09T09:11:25;33.40;37.30
20066;DHT22;10193;48.884;9.182;2023-07-09T09:14:01;33.50;37.30
20066;DHT22;10193;48.884;9.182;2023-07-09T09:16:33;33.50;37.00
20066;DHT22;10193;48.884;9.182;2023-07-09T09:19:02;33.50;37.00
20066;DHT22;10193;48.884;9.182;2023-07-09T09:21:32;33.50;37.10
20066;DHT22;10193;48.884;9.182;2023-07-09T09:24:12;33.50;36.90
20066;DHT22;10193;48.884;9.182;2023-07-09T09:26:42;33.50;36.80
20066;DHT22;10193;48.884;9.182;2023-07-09T09:29:11;33.60;37.10
20066;DHT22;10193;48.884;9.182;2023-07-09T09:31:40;33.70;37.20
20066;DHT22;10193;48.884;9.182;2023-07-09T09:34:17;33.70;37.30
20066;DHT22;10193;48.884;9.182;2023-07-09T09:36:43;33.80;36.80
20066;DHT22;10193;48.884;9.182;2023-07-09T09:39:10;33.90;36.80
20066;DHT22;10193;48.884;9.182;2023-07-09T09:41:37;34.00;36.70
20066;DHT22;10193;48.884;9.182;2023-07-09T09:44:06;34.00;37.20
20066;DHT22;10193;48.884;9.182;2023-07-09T09:46:44;34.00;36.30
20066;DHT22;10193;48.884;9.182;2023-07-09T09:49:11;34.10;36.00
20066;DHT22;10193;48.884;9.182;2023-07-09T09:51:40;34.20;35.80
20066;DHT22;10193;48.884;9.182;2023-07-09T09:54:16;34.20;35.70
20066;DHT22;10193;48.884;9.182;2023-07-09T09:56:44;34.30;35.20
20066;DHT22;10193;48.884;9.182;2023-07-09T09:59:18;34.40;35.40
20066;DHT22;10193;48.884;9.182;2023-07-09T10:01:47;34.40;35.20
20066;DHT22;10193;48.884;9.182;2023-07-09T10:04:17;34.40;35.10
20066;DHT22;10193;48.884;9.182;2023-07-09T10:06:48;34.50;34.80
20066;DHT22;10193;48.884;9.182;2023-07-09T10:09:24;34.50;34.70
20066;DHT22;10193;48.884;9.182;2023-07-09T10:11:58;34.60;34.50
20066;DHT22;10193;48.884;9.182;2023-07-09T10:14:34;34.70;34.40
20066;DHT22;10193;48.884;9.182;2023-07-09T10:17:13;34.70;34.10
20066;DHT22;10193;48.884;9.182;2023-07-09T10:19:47;34.80;34.10
20066;DHT22;10193;48.884;9.182;2023-07-09T10:22:23;34.80;34.10
20066;DHT22;10193;48.884;9.182;2023-07-09T10:24:57;34.90;33.90
20066;DHT22;10193;48.884;9.182;2023-07-09T10:27:33;34.90;33.70
20066;DHT22;10193;48.884;9.182;2023-07-09T10:30:13;34.90;33.50
20066;DHT22;10193;48.884;9.182;2023-07-09T10:32:55;35.00;33.40
20066;DHT22;10193;48.884;9.182;2023-07-09T10:35:29;35.00;33.10
20066;DHT22;10193;48.884;9.182;2023-07-09T10:38:07;35.10;33.00
20066;DHT22;10193;48.884;9.182;2023-07-09T10:40:39;35.10;32.70
20066;DHT22;10193;48.884;9.182;2023-07-09T10:43:15;35.20;32.70
20066;DHT22;10193;48.884;9.182;2023-07-09T10:45:46;35.30;32.40
20066;DHT22;10193;48.884;9.182;2023-07-09T10:48:17;35.40;32.50
20066;DHT22;10193;48.884;9.182;2023-07-09T10:50:48;35.40;32.00
20066;DHT22;10193;48.884;9.182;2023-07-09T10:53:24;35.50;31.80
20066;DHT22;10193;48.884;9.182;2023-07-09T10:55:56;35.50;31.50
20066;DHT22;10193;48.884;9.182;2023-07-09T10:58:31;35.60;31.60
20066;DHT22;10193;48.884;9.182;2023-07-09T11:01:00;35.70;31.20
20066;DHT22;10193;48.884;9.182;2023-07-09T11:03:36;35.70;31.40
20066;DHT22;10193;48.884;9.182;2023-07-09T11:06:04;35.70;30.80
20066;DHT22;10193;48.884;9.182;2023-07-09T11:08:35;35.90;31.30
20066;DHT22;10193;48.884;9.182;2023-07-09T11:11:05;35.80;30.70
20066;DHT22;10193;48.884;9.182;2023-07-09T11:13:38;35.90;30.60
20066;DHT22;10193;48.884;9.182;2023-07-09T11:16:07;36.00;30.40
20066;DHT22;10193;48.884;9.182;2023-07-09T11:18:39;36.00;30.40
20066;DHT22;10193;48.884;9.182;2023-07-09T11:21:08;36.00;30.10
20066;DHT22;10193;48.884;9.182;2023-07-09T11:23:45;36.00;29.80
20066;DHT22;10193;48.884;9.182;2023-07-09T11:26:14;36.10;29.30
20066;DHT22;10193;48.884;9.182;2023-07-09T11:28:51;36.20;29.60
20066;DHT22;10193;48.884;9.182;2023-07-09T11:31:22;36.20;29.30
20066;DHT22;10193;48.884;9.182;2023-07-09T11:34:02;36.20;29.20
20066;DHT22;10193;48.884;9.182;2023-07-09T11:36:30;36.30;28.90
20066;DHT22;10193;48.884;9.182;2023-07-09T11:38:57;36.40;29.30
20066;DHT22;10193;48.884;9.182;2023-07-09T11:41:37;36.40;29.20
20066;DHT22;10193;48.884;9.182;2023-07-09T11:44:12;36.50;28.80
20066;DHT22;10193;48.884;9.182;2023-07-09T11:46:52;36.50;28.80
20066;DHT22;10193;48.884;9.182;2023-07-09T11:49:24;36.60;28.70
20066;DHT22;10193;48.884;9.182;2023-07-09T11:51:55;36.70;28.80
20066;DHT22;10193;48.884;9.182;2023-07-09T11:54:24;36.80;28.70
20066;DHT22;10193;48.884;9.182;2023-07-09T11:56:55;36.70;28.60
20066;DHT22;10193;48.884;9.182;2023-07-09T11:59:22;36.80;28.40
20066;DHT22;10193;48.884;9.182;2023-07-09T12:01:49;36.80;28.60
20066;DHT22;10193;48.884;9.182;2023-07-09T12:04:23;36.80;28.50
20066;DHT22;10193;48.884;9.182;2023-07-09T12:06:57;36.80;28.30
20066;DHT22;10193;48.884;9.182;2023-07-09T12:09:32;36.80;28.10
20066;DHT22;10193;48.884;9.182;2023-07-09T12:11:58;36.80;27.90
20066;DHT22;10193;48.884;9.182;2023-07-09T12:14:25;36.80;28.10
20066;DHT22;10193;48.884;9.182;2023-07-09T12:16:53;36.90;28.10
20066;DHT22;10193;48.884;9.182;2023-07-09T12:19:23;36.90;27.80
20066;DHT22;10193;48.884;9.182;2023-07-09T12:21:53;36.90;27.60
20066;DHT22;10193;48.884;9.182;2023-07-09T12:24:24;37.00;27.80
20066;DHT22;10193;48.884;9.182;2023-07-09T12:26:52;37.00;27.70
20066;DHT22;10193;48.884;9.182;2023-07-09T12:29:19;37.10;27.80
20066;DHT22;10193;48.884;9.182;2023-07-09T12:31:46;37.10;27.60
20066;DHT22;10193;48.884;9.182;2023-07-09T12:34:14;37.20;27.60
20066;DHT22;10193;48.884;9.182;2023-07-09T12:36:49;37.20;27.30
20066;DHT22;10193;48.884;9.182;2023-07-09T12:39:20;37.20;27.20
20066;DHT22;10193;48.884;9.182;2023-07-09T12:41:49;37.40;27.30
20066;DHT22;10193;48.884;9.182;2023-07-09T12:44:18;37.40;27.30
20066;DHT22;10193;48.884;9.182;2023-07-09T12:46:46;37.50;27.20
20066;DHT22;10193;48.884;9.182;2023-07-09T12:49:21;37.50;27.10
20066;DHT22;10193;48.884;9.182;2023-07-09T12:51:49;37.60;26.80
20066;DHT22;10193;48.884;9.182;2023-07-09T12:54:18;37.70;26.90
20066;DHT22;10193;48.884;9.182;2023-07-09T12:56:46;37.70;26.50
20066;DHT22;10193;48.884;9.182;2023-07-09T12:59:18;37.80;26.50
20066;DHT22;10193;48.884;9.182;2023-07-09T13:01:50;37.80;26.40
20066;DHT22;10193;48.884;9.182;2023-07-09T13:04:17;37.80;26.30
20066;DHT22;10193;48.884;9.182;2023-07-09T13:06:45;37.80;26.20
20066;DHT22;10193;48.884;9.182;2023-07-09T13:09:18;37.70;26.20
20066;DHT22;10193;48.884;9.182;2023-07-09T13:11:47;37.70;26.00
20066;DHT22;10193;48.884;9.182;2023-07-09T13:14:19;37.80;26.10
20066;DHT22;10193;48.884;9.182;2023-07-09T13:16:46;37.80;25.80
20066;DHT22;10193;48.884;9.182;2023-07-09T13:19:13;37.90;25.90
20066;DHT22;10193;48.884;9.182;2023-07-09T13:21:40;37.90;25.80
20066;DHT22;10193;48.884;9.182;2023-07-09T13:24:16;38.00;25.80
20066;DHT22;10193;48.884;9.182;2023-07-09T13:26:43;38.00;25.40
20066;DHT22;10193;48.884;9.182;2023-07-09T13:29:14;38.00;25.30
20066;DHT22;10193;48.884;9.182;2023-07-09T13:31:41;38.10;25.20
20066;DHT22;10193;48.884;9.182;2023-07-09T13:34:17;38.10;25.20
20066;DHT22;10193;48.884;9.182;2023-07-09T13:36:44;38.20;24.90
20066;DHT22;10193;48.884;9.182;2023-07-09T13:39:11;38.20;24.90
20066;DHT22;10193;48.884;9.182;2023-07-09T13:41:42;38.30;24.70
20066;DHT22;10193;48.884;9.182;2023-07-09T13:44:12;38.30;24.50
20066;DHT22;10193;48.884;9.182;2023-07-09T13:46:39;38.30;24.80
20066;DHT22;10193;48.884;9.182;2023-07-09T13:49:09;38.40;24.50
20066;DHT22;10193;48.884;9.182;2023-07-09T13:51:36;38.40;24.70
20066;DHT22;10193;48.884;9.182;2023-07-09T13:54:09;38.40;24.30
20066;DHT22;10193;48.884;9.182;2023-07-09T13:56:40;38.40;24.00
20066;DHT22;10193;48.884;9.182;2023-07-09T13:59:13;38.40;23.90
20066;DHT22;10193;48.884;9.182;2023-07-09T14:01:40;38.50;23.80
20066;DHT22;10193;48.884;9.182;2023-07-09T14:04:09;38.40;24.00
20066;DHT22;10193;48.884;9.182;2023-07-09T14:06:37;38.40;23.90
20066;DHT22;10193;48.884;9.182;2023-07-09T14:09:04;38.50;24.00
20066;DHT22;10193;48.884;9.182;2023-07-09T14:11:32;38.50;24.10
20066;DHT22;10193;48.884;9.182;2023-07-09T14:14:00;38.40;24.00
20066;DHT22;10193;48.884;9.182;2023-07-09T14:16:27;38.50;24.00
20066;DHT22;10193;48.884;9.182;2023-07-09T14:18:54;38.50;24.20
20066;DHT22;10193;48.884;9.182;2023-07-09T14:21:24;38.60;24.20
20066;DHT22;10193;48.884;9.182;2023-07-09T14:23:51;38.60;23.90
20066;DHT22;10193;48.884;9.182;2023-07-09T14:26:18;38.70;24.10
20066;DHT22;10193;48.884;9.182;2023-07-09T14:28:45;38.70;24.20
20066;DHT22;10193;48.884;9.182;2023-07-09T14:31:28;38.80;24.20
20066;DHT22;10193;48.884;9.182;2023-07-09T14:34:04;38.80;24.00
20066;DHT22;10193;48.884;9.182;2023-07-09T14:36:38;39.00;24.20
20066;DHT22;10193;48.884;9.182;2023-07-09T14:39:08;39.10;24.10
20066;DHT22;10193;48.884;9.182;2023-07-09T14:41:35;39.20;23.90
20066;DHT22;10193;48.884;9.182;2023-07-09T14:44:02;39.20;23.80
20066;DHT22;10193;48.884;9.182;2023-07-09T14:46:30;39.20;23.70
20066;DHT22;10193;48.884;9.182;2023-07-09T14:48:57;39.20;23.50
20066;DHT22;10193;48.884;9.182;2023-07-09T14:51:25;39.20;23.60
20066;DHT22;10193;48.884;9.182;2023-07-09T14:53:51;39.20;23.40
20066;DHT22;10193;48.884;9.182;2023-07-09T14:56:18;39.20;23.70
20066;DHT22;10193;48.884;9.182;2023-07-09T14:58:45;39.20;23.50
20066;DHT22;10193;48.884;9.182;2023-07-09T15:01:13;39.30;23.80
20066;DHT22;10193;48.884;9.182;2023-07-09T15:03:41;39.30;23.70
20066;DHT22;10193;48.884;9.182;2023-07-09T15:06:08;39.40;23.90
20066;DHT22;10193;48.884;9.182;2023-07-09T15:08:34;39.40;23.90
20066;DHT22;10193;48.884;9.182;2023-07-09T15:11:02;39.50;24.00
20066;DHT22;10193;48.884;9.182;2023-07-09T15:13:31;39.60;24.10
20066;DHT22;10193;48.884;9.182;2023-07-09T15:15:58;39.70;24.10
20066;DHT22;10193;48.884;9.182;2023-07-09T15:18:25;39.80;23.90
20066;DHT22;10193;48.884;9.182;2023-07-09T15:20:55;39.80;23.80
20066;DHT22;10193;48.884;9.182;2023-07-09T15:23:23;39.90;23.60
20066;DHT22;10193;48.884;9.182;2023-07-09T15:25:50;40.00;23.50
20066;DHT22;10193;48.884;9.182;2023-07-09T15:28:17;40.00;23.20
20066;DHT22;10193;48.884;9.182;2023-07-09T15:30:45;40.00;22.90
20066;DHT22;10193;48.884;9.182;2023-07-09T15:33:14;40.00;23.00
20066;DHT22;10193;48.884;9.182;2023-07-09T15:35:43;40.00;22.80
20066;DHT22;10193;48.884;9.182;2023-07-09T15:38:24;39.90;23.10
20066;DHT22;10193;48.884;9.182;2023-07-09T15:40:52;39.90;23.20